createdAt,value
2017-06-16T00:00:05.698Z,91.88
2017-06-16T00:00:46.185Z,91.2
2017-06-16T00:01:27.601Z,91.39
2017-06-16T00:02:08.129Z,92.16
2017-06-16T00:02:48.685Z,91.39
2017-06-16T00:03:29.195Z,91.97
2017-06-16T00:04:09.670Z,91.78
2017-06-16T00:04:50.441Z,91.97
2017-06-16T00:05:30.974Z,91.97
2017-06-16T00:06:11.492Z,91.59
2017-06-16T00:06:51.970Z,91.59
2017-06-16T00:07:32.495Z,90.81
2017-06-16T00:08:12.973Z,91.49
2017-06-16T00:08:53.528Z,91.59
2017-06-16T00:09:34.118Z,91.49
2017-06-16T00:10:14.570Z,91.49
2017-06-16T00:10:55.125Z,91.68
2017-06-16T00:11:35.628Z,91.68
2017-06-16T00:12:16.111Z,92.07
2017-06-16T00:12:56.612Z,91.68
2017-06-16T00:13:37.155Z,91.39
2017-06-16T00:14:17.660Z,91.88
2017-06-16T00:14:58.107Z,91.59
2017-06-16T00:15:38.634Z,91.68
2017-06-16T00:16:19.135Z,91.49
2017-06-16T00:16:59.658Z,91.68
2017-06-16T00:17:40.148Z,91.97
2017-06-16T00:18:20.686Z,91.68
2017-06-16T00:19:01.191Z,92.26
2017-06-16T00:19:41.847Z,92.46
2017-06-16T00:20:22.258Z,91.88
2017-06-16T00:21:02.815Z,91.88
2017-06-16T00:21:43.259Z,91.2
2017-06-16T00:22:23.873Z,91.3
2017-06-16T00:23:04.389Z,91.39
2017-06-16T00:23:44.878Z,91.3
2017-06-16T00:24:25.386Z,91.59
2017-06-16T00:25:05.873Z,91.39
2017-06-16T00:25:46.416Z,91.97
2017-06-16T00:26:26.919Z,92.26
2017-06-16T00:27:07.401Z,92.65
2017-06-16T00:27:47.913Z,92.46
2017-06-16T00:28:28.398Z,92.12
2017-06-16T00:29:08.903Z,92.26
2017-06-16T00:29:49.386Z,91.97
2017-06-16T00:30:29.871Z,91.97
2017-06-16T00:31:10.388Z,92.26
2017-06-16T00:31:50.886Z,91.97
2017-06-16T00:32:31.397Z,91.59
2017-06-16T00:33:11.861Z,91.68
2017-06-16T00:33:52.384Z,91.78
2017-06-16T00:34:32.881Z,91.88
2017-06-16T00:35:13.351Z,91.88
2017-06-16T00:35:53.878Z,91.2
2017-06-16T00:36:34.393Z,91.3
2017-06-16T00:37:14.927Z,91.68
2017-06-16T00:37:55.408Z,91.59
2017-06-16T00:38:35.907Z,91.97
2017-06-16T00:39:16.441Z,91.88
2017-06-16T00:39:56.938Z,92.07
2017-06-16T00:40:37.421Z,92.07
2017-06-16T00:41:17.924Z,92.26
2017-06-16T00:41:58.475Z,92.36
2017-06-16T00:42:38.973Z,91.97
2017-06-16T00:43:19.493Z,91.97
2017-06-16T00:43:59.987Z,91.88
2017-06-16T00:44:40.484Z,92.26
2017-06-16T00:45:20.991Z,92.46
2017-06-16T00:46:01.529Z,92.74
2017-06-16T00:46:42.018Z,92.41
2017-06-16T00:47:22.543Z,92.8
2017-06-16T00:48:03.098Z,92.84
2017-06-16T00:48:43.527Z,92.36
2017-06-16T00:49:24.129Z,92.16
2017-06-16T00:50:04.664Z,92.65
2017-06-16T00:50:45.180Z,92.84
2017-06-16T00:51:25.663Z,92.46
2017-06-16T00:52:06.128Z,92.46
2017-06-16T00:52:46.666Z,92.36
2017-06-16T00:53:27.156Z,92.41
2017-06-16T00:54:07.651Z,92.7
2017-06-16T00:54:48.153Z,92.5
2017-06-16T00:55:28.673Z,92.32
2017-06-16T00:56:09.199Z,92.5
2017-06-16T00:56:49.675Z,92.99
2017-06-16T00:57:30.193Z,92.99
2017-06-16T00:58:10.700Z,92.89
2017-06-16T00:58:51.238Z,92.55
2017-06-16T00:59:31.745Z,92.6
2017-06-16T01:00:12.237Z,92.26
2017-06-16T01:00:52.814Z,91.97
2017-06-16T01:01:33.340Z,91.93
2017-06-16T01:02:13.849Z,92.12
2017-06-16T01:02:54.367Z,92.8
2017-06-16T01:03:34.893Z,92.6
2017-06-16T01:04:15.405Z,92.6
2017-06-16T01:04:55.882Z,92.7
2017-06-16T01:05:36.419Z,92.6
2017-06-16T01:06:17.010Z,92.41
2017-06-16T01:06:57.491Z,92.6
2017-06-16T01:07:38.005Z,92.8
2017-06-16T01:08:18.580Z,92.8
2017-06-16T01:08:59.032Z,92.12
2017-06-16T01:09:39.543Z,92.22
2017-06-16T01:10:20.032Z,92.26
2017-06-16T01:11:00.520Z,92.02
2017-06-16T01:11:41.492Z,92.8
2017-06-16T01:12:21.592Z,92.16
2017-06-16T01:13:02.095Z,91.88
2017-06-16T01:13:42.590Z,91.39
2017-06-16T01:14:23.188Z,91.93
2017-06-16T01:15:03.691Z,92.02
2017-06-16T01:15:44.200Z,92.32
2017-06-16T01:16:24.705Z,92.32
2017-06-16T01:17:05.197Z,92.89
2017-06-16T01:17:45.747Z,92.8
2017-06-16T01:18:26.233Z,92.12
2017-06-16T01:19:06.799Z,92.12
2017-06-16T01:19:47.260Z,92.8
2017-06-16T01:20:27.763Z,92.22
2017-06-16T01:21:08.261Z,92.32
2017-06-16T01:21:48.776Z,92.5
2017-06-16T01:22:29.307Z,92.41
2017-06-16T01:23:09.843Z,92.8
2017-06-16T01:23:50.372Z,92.89
2017-06-16T01:24:30.829Z,92.6
2017-06-16T01:25:11.341Z,92.89
2017-06-16T01:25:51.846Z,92.99
2017-06-16T01:26:32.312Z,92.41
2017-06-16T01:27:12.837Z,92.41
2017-06-16T01:27:53.352Z,92.8
2017-06-16T01:28:33.837Z,92.32
2017-06-16T01:29:14.378Z,92.89
2017-06-16T01:29:54.848Z,92.6
2017-06-16T01:30:35.368Z,92.85
2017-06-16T01:31:15.830Z,92.6
2017-06-16T01:31:56.344Z,92.7
2017-06-16T01:32:36.812Z,92.6
2017-06-16T01:33:17.280Z,92.8
2017-06-16T01:33:57.802Z,92.6
2017-06-16T01:34:38.343Z,92.6
2017-06-16T01:35:18.788Z,93.13
2017-06-16T01:35:59.270Z,93.33
2017-06-16T01:36:40.766Z,93.08
2017-06-16T01:37:21.256Z,92.7
2017-06-16T01:38:01.762Z,92.8
2017-06-16T01:38:42.291Z,92.41
2017-06-16T01:39:22.786Z,92.7
2017-06-16T01:40:03.364Z,92.32
2017-06-16T01:40:43.790Z,92.32
2017-06-16T01:41:24.287Z,92.8
2017-06-16T01:42:04.820Z,92.12
2017-06-16T01:42:45.301Z,92.6
2017-06-16T01:43:25.795Z,92.5
2017-06-16T01:44:06.339Z,92.6
2017-06-16T01:44:46.781Z,92.41
2017-06-16T01:45:27.324Z,92.02
2017-06-16T01:46:07.830Z,92.22
2017-06-16T01:46:48.366Z,92.99
2017-06-16T01:47:28.833Z,92.41
2017-06-16T01:48:09.350Z,92.7
2017-06-16T01:48:49.850Z,92.7
2017-06-16T01:49:30.315Z,92.8
2017-06-16T01:50:10.833Z,92.41
2017-06-16T01:50:51.311Z,92.5
2017-06-16T01:51:31.864Z,92.22
2017-06-16T01:52:12.314Z,92.41
2017-06-16T01:52:52.839Z,92.41
2017-06-16T01:53:33.344Z,92.02
2017-06-16T01:54:13.835Z,92.12
2017-06-16T01:54:54.374Z,91.93
2017-06-16T01:55:34.850Z,91.83
2017-06-16T01:56:15.354Z,91.64
2017-06-16T01:56:55.869Z,91.93
2017-06-16T01:57:36.409Z,91.35
2017-06-16T01:58:16.903Z,91.64
2017-06-16T01:58:57.353Z,92.22
2017-06-16T01:59:37.874Z,91.64
2017-06-16T02:00:18.361Z,91.54
2017-06-16T02:00:58.835Z,91.64
2017-06-16T02:01:39.351Z,91.54
2017-06-16T02:02:19.892Z,92.41
2017-06-16T02:03:00.465Z,92.02
2017-06-16T02:03:40.952Z,91.74
2017-06-16T02:04:21.451Z,92.22
2017-06-16T02:05:01.979Z,92.32
2017-06-16T02:05:42.495Z,91.93
2017-06-16T02:06:23.010Z,91.93
2017-06-16T02:07:03.471Z,91.35
2017-06-16T02:07:43.951Z,91.25
2017-06-16T02:08:24.453Z,91.16
2017-06-16T02:09:04.968Z,91.54
2017-06-16T02:09:45.470Z,92.02
2017-06-16T02:10:25.960Z,91.93
2017-06-16T02:11:06.459Z,91.93
2017-06-16T02:11:46.952Z,92.17
2017-06-16T02:12:27.474Z,92.56
2017-06-16T02:13:08.002Z,92.7
2017-06-16T02:13:48.527Z,92.6
2017-06-16T02:14:29.046Z,92.12
2017-06-16T02:15:09.536Z,92.41
2017-06-16T02:15:49.974Z,91.64
2017-06-16T02:16:30.519Z,92.02
2017-06-16T02:17:11.048Z,91.64
2017-06-16T02:17:51.525Z,92.22
2017-06-16T02:18:32.301Z,91.83
2017-06-16T02:19:12.711Z,91.98
2017-06-16T02:19:53.234Z,92.36
2017-06-16T02:20:33.772Z,92.56
2017-06-16T02:21:14.254Z,92.75
2017-06-16T02:21:54.735Z,91.98
2017-06-16T02:22:35.298Z,92.65
2017-06-16T02:23:15.792Z,92.46
2017-06-16T02:23:56.284Z,92.27
2017-06-16T02:24:36.767Z,92.27
2017-06-16T02:25:17.296Z,92.27
2017-06-16T02:25:57.747Z,92.46
2017-06-16T02:26:38.281Z,92.27
2017-06-16T02:27:18.800Z,92.17
2017-06-16T02:27:59.311Z,92.36
2017-06-16T02:28:39.802Z,91.69
2017-06-16T02:29:20.306Z,92.17
2017-06-16T02:30:00.815Z,91.78
2017-06-16T02:30:41.337Z,92.17
2017-06-16T02:31:21.886Z,91.5
2017-06-16T02:32:02.428Z,91.69
2017-06-16T02:32:42.879Z,91.78
2017-06-16T02:33:23.387Z,91.2
2017-06-16T02:34:03.844Z,91.2
2017-06-16T02:34:44.344Z,91.69
2017-06-16T02:35:24.866Z,91.02
2017-06-16T02:36:05.352Z,91.4
2017-06-16T02:36:45.890Z,90.82
2017-06-16T02:37:26.350Z,91.6
2017-06-16T02:38:06.881Z,91.69
2017-06-16T02:38:47.343Z,91.5
2017-06-16T02:39:27.876Z,91.6
2017-06-16T02:40:08.382Z,91.5
2017-06-16T02:40:48.854Z,91.88
2017-06-16T02:41:29.406Z,91.88
2017-06-16T02:42:09.876Z,91.11
2017-06-16T02:42:50.376Z,91.69
2017-06-16T02:43:30.858Z,91.11
2017-06-16T02:44:11.307Z,91.3
2017-06-16T02:44:51.838Z,91.02
2017-06-16T02:45:32.363Z,91.3
2017-06-16T02:46:12.855Z,90.92
2017-06-16T02:46:53.387Z,90.92
2017-06-16T02:47:33.851Z,91.02
2017-06-16T02:48:14.381Z,91.02
2017-06-16T02:48:54.865Z,90.82
2017-06-16T02:49:35.417Z,91.11
2017-06-16T02:50:15.893Z,91.4
2017-06-16T02:50:56.412Z,91.11
2017-06-16T02:51:36.928Z,90.63
2017-06-16T02:52:17.406Z,90.53
2017-06-16T02:52:57.943Z,90.44
2017-06-16T02:53:38.456Z,90.05
2017-06-16T02:54:18.975Z,89.81
2017-06-16T02:54:59.482Z,90
2017-06-16T02:55:39.981Z,89.37
2017-06-16T02:56:20.457Z,88.99
2017-06-16T02:57:00.944Z,88.51
2017-06-16T02:57:41.476Z,88.7
2017-06-16T02:58:21.944Z,88.41
2017-06-16T02:59:02.492Z,88.51
2017-06-16T02:59:42.962Z,88.51
2017-06-16T03:00:23.472Z,87.45
2017-06-16T03:01:03.972Z,86.87
2017-06-16T03:01:44.461Z,86.68
2017-06-16T03:02:24.976Z,86.77
2017-06-16T03:03:05.484Z,86.96
2017-06-16T03:03:45.975Z,86.39
2017-06-16T03:04:26.479Z,85.71
2017-06-16T03:05:07.013Z,85.42
2017-06-16T03:05:47.495Z,85.52
2017-06-16T03:06:27.985Z,85.61
2017-06-16T03:07:08.519Z,85.91
2017-06-16T03:07:49.020Z,85.61
2017-06-16T03:08:29.517Z,85.42
2017-06-16T03:09:09.970Z,85.13
2017-06-16T03:09:50.692Z,84.75
2017-06-16T03:10:31.189Z,84.17
2017-06-16T03:11:11.742Z,83.78
2017-06-16T03:11:52.207Z,84.17
2017-06-16T03:12:32.740Z,84.36
2017-06-16T03:13:13.219Z,84.36
2017-06-16T03:13:53.780Z,84.17
2017-06-16T03:14:34.206Z,83.88
2017-06-16T03:15:14.695Z,83.59
2017-06-16T03:15:55.178Z,83.88
2017-06-16T03:16:35.715Z,83.4
2017-06-16T03:17:16.221Z,83.98
2017-06-16T03:17:56.718Z,83.59
2017-06-16T03:18:37.249Z,83.78
2017-06-16T03:19:17.741Z,82.82
2017-06-16T03:19:58.223Z,83.3
2017-06-16T03:20:38.754Z,83.4
2017-06-16T03:21:19.218Z,83.74
2017-06-16T03:21:59.723Z,83.98
2017-06-16T03:22:40.198Z,83.26
2017-06-16T03:23:20.718Z,83.4
2017-06-16T03:24:01.198Z,83.64
2017-06-16T03:24:41.730Z,83.64
2017-06-16T03:25:22.209Z,84.07
2017-06-16T03:26:02.714Z,83.5
2017-06-16T03:26:43.207Z,84.03
2017-06-16T03:27:23.761Z,83.64
2017-06-16T03:28:04.218Z,83.07
2017-06-16T03:28:44.703Z,82.59
2017-06-16T03:29:25.218Z,83.01
2017-06-16T03:30:05.732Z,83.84
2017-06-16T03:30:46.252Z,83.98
2017-06-16T03:31:26.757Z,83.59
2017-06-16T03:32:07.276Z,82.97
2017-06-16T03:32:47.773Z,83.01
2017-06-16T03:33:28.255Z,82.82
2017-06-16T03:34:08.785Z,82.62
2017-06-16T03:34:49.251Z,82.24
2017-06-16T03:35:29.752Z,82.34
2017-06-16T03:36:10.322Z,82.01
2017-06-16T03:36:50.776Z,82.49
2017-06-16T03:37:31.303Z,82.59
2017-06-16T03:38:11.800Z,82.29
2017-06-16T03:38:52.267Z,82.2
2017-06-16T03:39:32.787Z,81.91
2017-06-16T03:40:13.300Z,82.1
2017-06-16T03:40:53.811Z,82.1
2017-06-16T03:41:34.274Z,82.39
2017-06-16T03:42:14.778Z,82.78
2017-06-16T03:42:55.236Z,82.59
2017-06-16T03:43:35.741Z,82.1
2017-06-16T03:44:16.245Z,82.1
2017-06-16T03:44:56.745Z,82.01
2017-06-16T03:45:37.267Z,81.81
2017-06-16T03:46:17.742Z,82.1
2017-06-16T03:46:58.267Z,82.29
2017-06-16T03:47:38.751Z,82.29
2017-06-16T03:48:19.292Z,81.81
2017-06-16T03:48:59.736Z,82.2
2017-06-16T03:49:40.244Z,82.01
2017-06-16T03:50:20.760Z,81.04
2017-06-16T03:51:01.264Z,80.46
2017-06-16T03:51:41.775Z,81.14
2017-06-16T03:52:22.291Z,80.56
2017-06-16T03:53:02.762Z,80.18
2017-06-16T03:53:43.223Z,80.37
2017-06-16T03:54:23.767Z,79.98
2017-06-16T03:55:04.290Z,80.18
2017-06-16T03:55:44.764Z,80.56
2017-06-16T03:56:25.281Z,80.08
2017-06-16T03:57:05.769Z,80.37
2017-06-16T03:57:46.282Z,80.08
2017-06-16T03:58:26.789Z,80.37
2017-06-16T03:59:07.321Z,79.89
2017-06-16T03:59:47.807Z,79.11
2017-06-16T04:00:28.293Z,78.73
2017-06-16T04:01:08.816Z,78.92
2017-06-16T04:01:49.336Z,78.92
2017-06-16T04:02:30.179Z,78.83
2017-06-16T04:03:10.702Z,78.92
2017-06-16T04:03:51.177Z,78.54
2017-06-16T04:04:31.703Z,78.4
2017-06-16T04:05:12.204Z,78.79
2017-06-16T04:05:52.796Z,78.92
2017-06-16T04:06:33.211Z,79.11
2017-06-16T04:07:13.691Z,78.73
2017-06-16T04:07:54.274Z,78.83
2017-06-16T04:08:34.781Z,79.02
2017-06-16T04:09:15.285Z,78.54
2017-06-16T04:09:55.791Z,78.83
2017-06-16T04:10:36.257Z,78.44
2017-06-16T04:11:16.766Z,78.34
2017-06-16T04:11:57.298Z,78.54
2017-06-16T04:12:37.824Z,78.15
2017-06-16T04:13:18.296Z,78.63
2017-06-16T04:13:58.813Z,79.02
2017-06-16T04:14:39.367Z,78.92
2017-06-16T04:15:19.838Z,78.25
2017-06-16T04:16:00.393Z,78.44
2017-06-16T04:16:40.861Z,78.92
2017-06-16T04:17:21.387Z,78.44
2017-06-16T04:18:01.874Z,78.34
2017-06-16T04:18:42.399Z,78.63
2017-06-16T04:19:22.920Z,78.83
2017-06-16T04:20:03.370Z,78.83
2017-06-16T04:20:43.846Z,78.83
2017-06-16T04:21:24.374Z,78.73
2017-06-16T04:22:04.845Z,78.73
2017-06-16T04:22:45.340Z,78.88
2017-06-16T04:23:25.878Z,79.36
2017-06-16T04:24:06.397Z,78.73
2017-06-16T04:24:46.840Z,79.11
2017-06-16T04:25:27.421Z,78.88
2017-06-16T04:26:07.909Z,79.11
2017-06-16T04:26:48.438Z,78.44
2017-06-16T04:27:28.913Z,78.44
2017-06-16T04:28:09.440Z,78.83
2017-06-16T04:28:49.888Z,78.11
2017-06-16T04:29:30.422Z,78.44
2017-06-16T04:30:10.880Z,78.34
2017-06-16T04:30:51.395Z,78.15
2017-06-16T04:31:31.888Z,78.83
2017-06-16T04:32:12.376Z,78.11
2017-06-16T04:32:52.867Z,78.21
2017-06-16T04:33:33.359Z,78.98
2017-06-16T04:34:13.879Z,78.31
2017-06-16T04:34:54.365Z,78.4
2017-06-16T04:35:34.891Z,78.31
2017-06-16T04:36:15.403Z,78.59
2017-06-16T04:36:55.925Z,77.83
2017-06-16T04:37:36.363Z,78.5
2017-06-16T04:38:16.875Z,78.59
2017-06-16T04:38:57.350Z,78.4
2017-06-16T04:39:37.856Z,78.21
2017-06-16T04:40:18.307Z,79.08
2017-06-16T04:40:58.864Z,78.73
2017-06-16T04:41:39.340Z,77.96
2017-06-16T04:42:19.829Z,78.21
2017-06-16T04:43:00.340Z,78.4
2017-06-16T04:43:40.815Z,78.59
2017-06-16T04:44:21.329Z,78.25
2017-06-16T04:45:01.854Z,78.63
2017-06-16T04:45:42.318Z,77.63
2017-06-16T04:46:22.837Z,77.53
2017-06-16T04:47:03.315Z,77.48
2017-06-16T04:47:43.823Z,78.15
2017-06-16T04:48:24.308Z,77.96
2017-06-16T04:49:04.800Z,77.96
2017-06-16T04:49:45.301Z,77.28
2017-06-16T04:50:25.773Z,76.51
2017-06-16T04:51:06.292Z,76.61
2017-06-16T04:51:46.855Z,76.71
2017-06-16T04:52:27.366Z,76.32
2017-06-16T04:53:07.882Z,77.28
2017-06-16T04:53:48.340Z,77.09
2017-06-16T04:54:28.899Z,77
2017-06-16T04:55:09.449Z,76.51
2017-06-16T04:55:49.918Z,76.71
2017-06-16T04:56:30.436Z,77.06
2017-06-16T04:57:10.901Z,77.09
2017-06-16T04:57:51.408Z,76.71
2017-06-16T04:58:31.881Z,76.67
2017-06-16T04:59:12.477Z,76.71
2017-06-16T04:59:52.970Z,76.51
2017-06-16T05:00:33.619Z,76.42
2017-06-16T05:01:14.166Z,76.03
2017-06-16T05:01:54.613Z,75.55
2017-06-16T05:02:35.135Z,74.97
2017-06-16T05:03:15.674Z,74.78
2017-06-16T05:03:56.177Z,75.26
2017-06-16T05:04:36.759Z,76.03
2017-06-16T05:05:17.451Z,75.93
2017-06-16T05:05:57.898Z,75.45
2017-06-16T05:06:38.467Z,75.42
2017-06-16T05:07:18.928Z,75.03
2017-06-16T05:07:59.420Z,75.32
2017-06-16T05:08:40.103Z,75.93
2017-06-16T05:09:20.546Z,75.84
2017-06-16T05:10:01.097Z,75.9
2017-06-16T05:10:41.603Z,76.18
2017-06-16T05:11:22.094Z,81.43
2017-06-16T05:12:02.590Z,85.28
2017-06-16T05:12:43.087Z,85.96
2017-06-16T05:13:23.571Z,83.84
2017-06-16T05:14:04.082Z,79.41
2017-06-16T05:14:44.602Z,85.09
2017-06-16T05:15:25.148Z,87.64
2017-06-16T05:16:05.666Z,87.74
2017-06-16T05:16:46.168Z,86.48
2017-06-16T05:17:26.643Z,83.83
2017-06-16T05:18:07.178Z,79
2017-06-16T05:18:47.639Z,81.22
2017-06-16T05:19:28.174Z,84.69
2017-06-16T05:20:09.310Z,85.08
2017-06-16T05:20:49.774Z,85.75
2017-06-16T05:21:30.343Z,84.31
2017-06-16T05:22:10.817Z,82.76
2017-06-16T05:22:51.306Z,81.6
2017-06-16T05:23:31.840Z,83.05
2017-06-16T05:24:12.885Z,83.53
2017-06-16T05:24:53.552Z,79.87
2017-06-16T05:25:34.049Z,81.6
2017-06-16T05:26:14.571Z,83.53
2017-06-16T05:26:55.045Z,84.64
2017-06-16T05:27:35.606Z,84.88
2017-06-16T05:28:16.079Z,84.39
2017-06-16T05:28:56.566Z,82.36
2017-06-16T05:29:37.030Z,82.94
2017-06-16T05:30:17.546Z,80.2
2017-06-16T05:30:58.075Z,82.84
2017-06-16T05:31:38.600Z,83.04
2017-06-16T05:32:19.116Z,80.62
2017-06-16T05:32:59.662Z,78.75
2017-06-16T05:33:40.158Z,74.99
2017-06-16T05:34:20.657Z,75.85
2017-06-16T05:35:01.204Z,77.78
2017-06-16T05:35:41.690Z,77.4
2017-06-16T05:36:22.233Z,78.75
2017-06-16T05:37:02.692Z,79.97
2017-06-16T05:37:43.171Z,79.97
2017-06-16T05:38:23.672Z,75.43
2017-06-16T05:39:04.390Z,79.49
2017-06-16T05:39:44.732Z,82.76
2017-06-16T05:40:25.223Z,83.92
2017-06-16T05:41:05.682Z,81.6
2017-06-16T05:41:46.148Z,80.54
2017-06-16T05:42:26.651Z,77.26
2017-06-16T05:43:07.139Z,79
2017-06-16T05:43:47.673Z,80.26
2017-06-16T05:44:29.050Z,80.26
2017-06-16T05:45:09.524Z,80.64
2017-06-16T05:45:50.060Z,81.41
2017-06-16T05:48:03.513Z,83.83
2017-06-16T05:48:44.035Z,85.46
2017-06-16T05:49:24.548Z,77.36
2017-06-16T05:50:05.051Z,82.23
2017-06-16T05:50:45.575Z,82.03
2017-06-16T05:51:26.125Z,79.02
2017-06-16T05:52:06.653Z,78.77
2017-06-16T05:52:47.231Z,78.11
2017-06-16T05:53:27.702Z,74.32
2017-06-16T05:54:08.225Z,74.02
2017-06-16T05:56:01.524Z,68.74
2017-06-16T05:56:42.052Z,65.01
2017-06-16T05:57:22.597Z,64.29
2017-06-16T05:58:03.118Z,60.03
2017-06-16T05:58:43.666Z,60.55
2017-06-16T05:59:24.186Z,60.94
2017-06-16T06:00:04.732Z,57.26
2017-06-16T06:00:45.604Z,56.77
2017-06-16T06:01:26.066Z,59.06
2017-06-16T06:02:06.643Z,61.76
2017-06-16T06:02:47.217Z,61.63
2017-06-16T06:03:27.743Z,62.06
2017-06-16T06:04:08.241Z,57.07
2017-06-16T06:04:48.997Z,61.8
2017-06-16T06:05:29.530Z,65.37
2017-06-16T06:06:10.044Z,68.54
2017-06-16T06:06:50.508Z,69.93
2017-06-16T06:07:31.110Z,70.37
2017-06-16T06:08:11.575Z,71.54
2017-06-16T06:08:52.115Z,70.34
2017-06-16T06:09:32.609Z,71.41
2017-06-16T06:10:13.063Z,66.34
2017-06-16T06:10:53.622Z,68.27
2017-06-16T06:11:34.085Z,70.7
2017-06-16T06:12:14.604Z,73.11
2017-06-16T06:12:55.124Z,74.82
2017-06-16T06:13:35.643Z,71.53
2017-06-16T06:14:16.205Z,68.79
2017-06-16T06:14:56.697Z,74.98
2017-06-16T06:15:37.245Z,71.5
2017-06-16T06:16:17.716Z,70.04
2017-06-16T06:16:58.261Z,69.27
2017-06-16T06:17:38.797Z,70.04
2017-06-16T06:18:19.391Z,73.24
2017-06-16T06:18:59.873Z,73.63
2017-06-16T06:19:40.380Z,72.17
2017-06-16T06:20:20.931Z,72.4
2017-06-16T06:21:01.478Z,72.21
2017-06-16T06:21:41.998Z,71.92
2017-06-16T06:22:22.546Z,70.31
2017-06-16T06:23:03.041Z,66.14
2017-06-16T06:23:43.607Z,65.95
2017-06-16T06:24:24.164Z,66.66
2017-06-16T06:25:04.666Z,65.98
2017-06-16T06:25:45.194Z,67.24
2017-06-16T06:26:25.725Z,67.14
2017-06-16T06:27:06.225Z,65.79
2017-06-16T06:27:46.752Z,63.07
2017-06-16T06:28:27.294Z,63.65
2017-06-16T06:29:07.831Z,64.43
2017-06-16T06:29:48.335Z,65.59
2017-06-16T06:30:28.874Z,67.34
2017-06-16T06:31:09.488Z,68.3
2017-06-16T06:31:50.014Z,66.02
2017-06-16T06:32:30.671Z,64.56
2017-06-16T06:33:11.071Z,64.85
2017-06-16T06:33:51.608Z,66.02
2017-06-16T06:34:32.076Z,65.14
2017-06-16T06:35:12.595Z,63.69
2017-06-16T06:35:53.091Z,64.37
2017-06-16T06:36:33.628Z,64.17
2017-06-16T06:37:14.118Z,63.49
2017-06-16T06:37:54.594Z,63.75
2017-06-16T06:38:35.125Z,67.34
2017-06-16T06:39:15.671Z,68.5
2017-06-16T06:39:56.178Z,68.89
2017-06-16T06:40:36.679Z,68.4
2017-06-16T06:41:17.182Z,68.89
2017-06-16T06:41:57.684Z,69.34
2017-06-16T06:42:38.210Z,65.47
2017-06-16T06:43:18.736Z,68.95
2017-06-16T06:43:59.321Z,65.08
2017-06-16T06:44:39.814Z,64.2
2017-06-16T06:45:20.275Z,69.85
2017-06-16T06:46:00.761Z,69.43
2017-06-16T06:46:41.260Z,70.83
2017-06-16T06:47:21.754Z,68.3
2017-06-16T06:48:02.295Z,71.41
2017-06-16T06:48:42.801Z,70.28
2017-06-16T06:49:23.271Z,69.02
2017-06-16T06:50:03.769Z,65.05
2017-06-16T06:50:44.291Z,69.83
2017-06-16T06:51:24.750Z,64.88
2017-06-16T06:52:05.277Z,67.02
2017-06-16T06:52:45.786Z,69.24
2017-06-16T06:53:26.273Z,68.96
2017-06-16T06:54:06.744Z,71.58
2017-06-16T06:54:47.272Z,68.47
2017-06-16T06:55:27.807Z,69.06
2017-06-16T06:56:08.309Z,62.26
2017-06-16T06:56:48.866Z,64.98
2017-06-16T06:57:29.309Z,67.11
2017-06-16T06:58:09.830Z,67.4
2017-06-16T06:58:50.374Z,67.54
2017-06-16T06:59:30.868Z,69.76
2017-06-16T07:00:11.407Z,69.86
2017-06-16T07:00:51.869Z,70.25
2017-06-16T07:02:50.010Z,64.56
2017-06-16T07:03:30.513Z,68.83
2017-06-16T07:04:11.025Z,67.66
2017-06-16T07:04:51.556Z,66.69
2017-06-16T07:07:04.904Z,66.72
2017-06-16T07:07:45.409Z,67.66
2017-06-16T07:08:25.932Z,65.24
2017-06-16T07:09:06.455Z,66.3
2017-06-16T07:09:47.005Z,63.49
2017-06-16T07:10:27.513Z,62.32
2017-06-16T07:11:08.026Z,65.14
2017-06-16T07:11:48.545Z,66.79
2017-06-16T07:12:29.119Z,64.43
2017-06-16T07:13:09.659Z,65.01
2017-06-16T07:13:50.143Z,65.5
2017-06-16T07:14:30.694Z,65.95
2017-06-16T07:15:11.202Z,64.98
2017-06-16T07:15:51.751Z,65.17
2017-06-16T07:16:32.229Z,62.95
2017-06-16T07:17:12.716Z,61.36
2017-06-16T07:17:53.278Z,59.42
2017-06-16T07:18:33.818Z,59.45
2017-06-16T07:19:14.333Z,59.84
2017-06-16T07:19:54.861Z,60.1
2017-06-16T07:20:35.390Z,62.33
2017-06-16T07:21:15.933Z,63.69
2017-06-16T07:21:56.444Z,60.2
2017-06-16T07:22:36.971Z,60.78
2017-06-16T07:23:17.500Z,59.52
2017-06-16T07:23:57.991Z,61.26
2017-06-16T07:24:38.502Z,61.55
2017-06-16T07:25:19.017Z,62.13
2017-06-16T07:25:59.502Z,61.75
2017-06-16T07:26:39.969Z,62.04
2017-06-16T07:27:20.487Z,60.58
2017-06-16T07:28:00.976Z,62.52
2017-06-16T07:28:41.500Z,62.43
2017-06-16T07:29:22.031Z,59.52
2017-06-16T07:30:02.549Z,64.75
2017-06-16T07:30:43.114Z,66.79
2017-06-16T07:31:23.639Z,64.85
2017-06-16T07:32:04.168Z,68.92
2017-06-16T07:32:44.695Z,65.63
2017-06-16T07:33:25.263Z,65.63
2017-06-16T07:34:05.769Z,65.72
2017-06-16T07:34:46.283Z,66.11
2017-06-16T07:35:26.836Z,66.99
2017-06-16T07:36:07.358Z,67.08
2017-06-16T07:36:47.893Z,68.54
2017-06-16T07:37:28.412Z,64.78
2017-06-16T07:38:08.934Z,67.4
2017-06-16T07:38:49.460Z,67.99
2017-06-16T07:39:29.998Z,63.23
2017-06-16T07:40:10.523Z,65.3
2017-06-16T07:40:51.074Z,64.78
2017-06-16T07:41:31.615Z,65.47
2017-06-16T07:42:12.124Z,65.95
2017-06-16T07:42:52.679Z,66.92
2017-06-16T07:43:33.214Z,66.24
2017-06-16T07:44:13.858Z,65.17
2017-06-16T07:44:54.287Z,64.88
2017-06-16T07:45:34.817Z,63.43
2017-06-16T07:46:15.381Z,62.88
2017-06-16T07:46:55.871Z,63.56
2017-06-16T07:47:36.382Z,64.5
2017-06-16T07:48:16.910Z,63.95
2017-06-16T07:48:57.463Z,63.65
2017-06-16T07:49:38.536Z,62.1
2017-06-16T07:50:18.501Z,63.04
2017-06-16T07:52:11.590Z,62.49
2017-06-16T07:52:52.148Z,63.56
2017-06-16T07:53:32.681Z,63.65
2017-06-16T07:54:13.206Z,63.26
2017-06-16T07:54:53.828Z,63.23
2017-06-16T07:55:34.381Z,59.58
2017-06-16T07:56:14.874Z,58
2017-06-16T07:56:55.408Z,62.16
2017-06-16T07:57:35.931Z,62.36
2017-06-16T07:58:16.469Z,61.81
2017-06-16T07:58:57.010Z,62.39
2017-06-16T07:59:37.555Z,59.03
2017-06-16T08:00:18.061Z,63.26
2017-06-16T08:00:58.588Z,61.32
2017-06-16T08:01:39.111Z,63.56
2017-06-16T08:02:19.658Z,62.88
2017-06-16T08:03:00.249Z,63.07
2017-06-16T08:03:40.751Z,64.23
2017-06-16T08:04:21.308Z,59.87
2017-06-16T08:05:01.803Z,60.64
2017-06-16T08:05:42.316Z,59.87
2017-06-16T08:06:22.854Z,62.29
2017-06-16T08:07:03.369Z,63.07
2017-06-16T08:07:43.894Z,63.26
2017-06-16T08:09:38.104Z,64.92
2017-06-16T08:10:18.625Z,65.59
2017-06-16T08:10:59.156Z,67.02
2017-06-16T08:11:39.707Z,67.21
2017-06-16T08:12:20.371Z,64.3
2017-06-16T08:13:00.881Z,63.33
2017-06-16T08:13:41.408Z,65.75
2017-06-16T08:14:21.927Z,67.18
2017-06-16T08:15:02.441Z,67.08
2017-06-16T08:15:42.949Z,67.57
2017-06-16T08:16:23.498Z,67.37
2017-06-16T08:17:04.016Z,68.63
2017-06-16T08:17:44.626Z,63.78
2017-06-16T08:18:25.091Z,64.17
2017-06-16T08:19:05.598Z,63.98
2017-06-16T08:19:46.099Z,67.27
2017-06-16T08:20:26.627Z,65.92
2017-06-16T08:21:07.146Z,63.4
2017-06-16T08:21:47.677Z,65.63
2017-06-16T08:22:28.228Z,67.76
2017-06-16T08:23:08.799Z,68.24
2017-06-16T08:23:49.258Z,68.82
2017-06-16T08:24:29.748Z,68.82
2017-06-16T08:25:10.295Z,66.89
2017-06-16T08:25:50.835Z,64.17
2017-06-16T08:26:31.319Z,64.47
2017-06-16T08:27:11.860Z,67.37
2017-06-16T08:27:52.364Z,65.63
2017-06-16T08:28:32.900Z,64.17
2017-06-16T08:29:13.415Z,66.3
2017-06-16T08:29:53.909Z,64.85
2017-06-16T08:30:34.459Z,65.24
2017-06-16T08:31:14.947Z,65.34
2017-06-16T08:31:55.482Z,66.11
2017-06-16T08:32:36.021Z,66.02
2017-06-16T08:33:16.491Z,66.27
2017-06-16T08:33:56.965Z,63.65
2017-06-16T08:34:37.483Z,64.95
2017-06-16T08:35:18.110Z,65.43
2017-06-16T08:35:58.614Z,63.59
2017-06-16T08:36:39.126Z,60.85
2017-06-16T08:37:19.595Z,64.43
2017-06-16T08:38:00.110Z,65.11
2017-06-16T08:38:40.644Z,64.04
2017-06-16T08:39:21.112Z,62.79
2017-06-16T08:40:01.614Z,64.82
2017-06-16T08:40:42.163Z,65.63
2017-06-16T08:41:22.625Z,66.79
2017-06-16T08:42:03.121Z,68.63
2017-06-16T08:42:43.611Z,68.34
2017-06-16T08:43:24.713Z,69.41
2017-06-16T08:44:04.601Z,70.18
2017-06-16T08:44:45.221Z,62.13
2017-06-16T08:45:25.690Z,61.52
2017-06-16T08:46:06.190Z,68.7
2017-06-16T08:46:46.725Z,71.06
2017-06-16T08:47:27.270Z,69.6
2017-06-16T08:48:07.821Z,68.63
2017-06-16T08:48:48.315Z,68.82
2017-06-16T08:49:28.852Z,69.99
2017-06-16T08:50:09.338Z,68.82
2017-06-16T08:50:49.976Z,69.5
2017-06-16T08:51:30.477Z,69.02
2017-06-16T08:52:10.924Z,69.79